Time;durP1;ratioP1;P1;durP2;ratioP2;P2;SDS_P1;SDS_P2;PMS_P1;PMS_P2;Temp;Humidity;BMP_temperature;BMP_pressure;BME280_temperature;BME280_humidity;BME280_pressure;Samples;Min_cycle;Max_cycle;Signal;HPM_P1;HPM_P2
2022/01/27 00:01:09;;;;;;;8.68;4.43;;;;;;;;;;5033334;28;100070;-74
2022/01/27 00:03:49;;;;;;;12.65;5.50;;;;;;;;;;5016335;28;100693;-73
2022/01/27 00:06:18;;;;;;;8.68;5.05;;;;;;;;;;5017739;28;100294;-73
2022/01/27 00:08:52;;;;;;;10.80;4.55;;;;;;;;;;5015506;28;102494;-74
2022/01/27 00:11:19;;;;;;;10.55;4.90;;;;;;;;;;5017521;28;100104;-73
2022/01/27 00:13:57;;;;;;;9.48;4.82;;;;;;;;;;4999707;28;100066;-74
2022/01/27 00:16:28;;;;;;;9.75;4.43;;;;;;;;;;5033017;28;101320;-73
2022/01/27 00:18:55;;;;;;;10.07;5.03;;;;;;;;;;5033662;28;100771;-74
2022/01/27 00:21:26;;;;;;;8.68;3.92;;;;;;;;;;5033746;28;100145;-74
2022/01/27 00:23:53;;;;;;;9.93;4.97;;;;;;;;;;5016661;28;100018;-73
2022/01/27 00:26:20;;;;;;;8.32;3.75;;;;;;;;;;5032757;28;100217;-73
2022/01/27 00:28:48;;;;;;;10.10;4.68;;;;;;;;;;5015553;28;100718;-74
2022/01/27 00:31:16;;;;;;;8.70;4.22;;;;;;;;;;5015786;28;100191;-73
2022/01/27 00:33:43;;;;;;;8.38;4.32;;;;;;;;;;5014911;28;100072;-74
2022/01/27 00:46:17;;;;;;;9.45;4.70;;;;;;;;;;5013580;27;100152;-74
2022/01/27 00:48:45;;;;;;;8.80;4.63;;;;;;;;;;5013852;28;100127;-74
2022/01/27 00:51:14;;;;;;;7.70;3.92;;;;;;;;;;4978762;28;101357;-74
2022/01/27 00:53:59;;;;;;;9.48;4.50;;;;;;;;;;4979401;28;100845;-77
2022/01/27 00:56:36;;;;;;;11.20;5.10;;;;;;;;;;4994642;28;100506;-74
2022/01/27 00:59:22;;;;;;;9.20;4.68;;;;;;;;;;4996725;28;100120;-73
2022/01/27 01:02:00;;;;;;;9.43;4.10;;;;;;;;;;5014514;28;100309;-72
2022/01/27 01:04:32;;;;;;;9.55;4.50;;;;;;;;;;5032233;27;100617;-73
2022/01/27 01:06:59;;;;;;;11.55;5.22;;;;;;;;;;4983935;28;100087;-73
2022/01/27 01:14:49;;;;;;;9.75;4.28;;;;;;;;;;4983001;28;100585;-73
2022/01/27 01:31:10;;;;;;;10.90;4.95;;;;;;;;;;5001837;28;100172;-74
2022/01/27 01:33:39;;;;;;;12.30;5.35;;;;;;;;;;5014656;28;101946;-73
2022/01/27 01:36:14;;;;;;;12.13;6.13;;;;;;;;;;5014173;28;103796;-74
2022/01/27 01:38:44;;;;;;;10.05;4.78;;;;;;;;;;5016164;28;100116;-74
2022/01/27 01:41:10;;;;;;;13.75;5.05;;;;;;;;;;4998610;28;100084;-74
2022/01/27 01:43:37;;;;;;;11.20;5.50;;;;;;;;;;5032145;28;100145;-74
2022/01/27 01:46:04;;;;;;;11.75;6.03;;;;;;;;;;5032182;28;100660;-74
2022/01/27 01:48:31;;;;;;;8.68;4.30;;;;;;;;;;5032197;28;99978;-74
2022/01/27 01:50:58;;;;;;;13.23;5.93;;;;;;;;;;4997344;28;100111;-73
2022/01/27 01:53:26;;;;;;;12.88;5.45;;;;;;;;;;4997649;28;101010;-73
2022/01/27 01:55:53;;;;;;;11.80;5.35;;;;;;;;;;4998213;28;100787;-74
2022/01/27 01:58:19;;;;;;;11.95;5.30;;;;;;;;;;5014264;28;100019;-74
2022/01/27 02:00:47;;;;;;;11.45;5.95;;;;;;;;;;4994949;28;101232;-74
2022/01/27 02:03:14;;;;;;;12.75;5.82;;;;;;;;;;5009333;28;101117;-74
2022/01/27 02:05:47;;;;;;;12.18;4.90;;;;;;;;;;5032436;28;100563;-73
2022/01/27 02:19:19;;;;;;;15.82;6.18;;;;;;;;;;5032096;28;102008;-74
2022/01/27 02:21:51;;;;;;;13.13;5.88;;;;;;;;;;5032061;28;100272;-73
2022/01/27 02:24:18;;;;;;;11.40;5.32;;;;;;;;;;4997270;28;102515;-73
2022/01/27 02:26:44;;;;;;;13.38;6.68;;;;;;;;;;4997247;28;100713;-74
2022/01/27 02:29:11;;;;;;;13.40;6.03;;;;;;;;;;5032133;28;100018;-74
2022/01/27 02:31:38;;;;;;;13.00;6.15;;;;;;;;;;4998033;28;100816;-73
2022/01/27 02:34:05;;;;;;;14.90;5.88;;;;;;;;;;5013782;28;100147;-73
2022/01/27 02:36:33;;;;;;;11.38;5.30;;;;;;;;;;5031524;28;100667;-74
2022/01/27 02:39:01;;;;;;;10.68;4.63;;;;;;;;;;4997212;28;100026;-73
2022/01/27 02:41:28;;;;;;;13.57;6.07;;;;;;;;;;4993971;28;100065;-73
2022/01/27 02:43:56;;;;;;;14.73;6.63;;;;;;;;;;4960982;28;100187;-73
2022/01/27 02:46:30;;;;;;;15.10;5.40;;;;;;;;;;4977395;28;100694;-73
2022/01/27 02:48:57;;;;;;;12.65;6.05;;;;;;;;;;5011696;28;100086;-73
2022/01/27 02:51:24;;;;;;;14.70;6.72;;;;;;;;;;4994128;28;100150;-73
2022/01/27 02:53:51;;;;;;;14.30;6.72;;;;;;;;;;4993590;28;100219;-75
2022/01/27 02:56:21;;;;;;;12.80;5.43;;;;;;;;;;4994073;28;100630;-73
2022/01/27 02:58:47;;;;;;;15.77;6.70;;;;;;;;;;4977333;28;100149;-73
2022/01/27 03:01:19;;;;;;;15.90;6.35;;;;;;;;;;5011579;28;99968;-73
2022/01/27 03:03:46;;;;;;;14.50;6.97;;;;;;;;;;5010692;28;100317;-73
2022/01/27 03:06:13;;;;;;;15.68;6.97;;;;;;;;;;4976968;28;100773;-73
2022/01/27 03:08:40;;;;;;;15.27;6.85;;;;;;;;;;5011675;28;99962;-73
2022/01/27 03:11:11;;;;;;;17.50;8.63;;;;;;;;;;5012414;28;102382;-73
2022/01/27 03:13:40;;;;;;;14.48;6.63;;;;;;;;;;5013563;28;100265;-73
2022/01/27 03:16:08;;;;;;;15.57;7.03;;;;;;;;;;5013373;28;100093;-74
2022/01/27 03:18:35;;;;;;;15.30;6.63;;;;;;;;;;5031407;28;100124;-73
2022/01/27 03:21:03;;;;;;;18.02;7.18;;;;;;;;;;5011783;28;101267;-73
2022/01/27 03:23:30;;;;;;;17.33;7.28;;;;;;;;;;4992903;28;100706;-73
2022/01/27 03:25:57;;;;;;;16.73;7.38;;;;;;;;;;5011093;28;100787;-73
2022/01/27 03:28:27;;;;;;;19.95;7.63;;;;;;;;;;4995579;28;100252;-74
2022/01/27 03:30:54;;;;;;;16.95;7.05;;;;;;;;;;5014840;28;99973;-73
2022/01/27 03:33:21;;;;;;;16.35;7.38;;;;;;;;;;4996849;28;100437;-74
2022/01/27 03:35:48;;;;;;;17.60;7.38;;;;;;;;;;4996995;28;100593;-73
2022/01/27 03:38:15;;;;;;;19.40;7.95;;;;;;;;;;5014826;28;100198;-74
2022/01/27 03:40:41;;;;;;;20.15;7.72;;;;;;;;;;4981091;28;100078;-73
2022/01/27 03:43:09;;;;;;;19.75;7.55;;;;;;;;;;4980473;28;100323;-74
2022/01/27 03:45:36;;;;;;;15.38;6.82;;;;;;;;;;5014812;28;100617;-74
2022/01/27 03:48:05;;;;;;;20.17;8.13;;;;;;;;;;4997241;28;100091;-74
2022/01/27 03:50:32;;;;;;;17.80;6.97;;;;;;;;;;4997345;28;100231;-73
2022/01/27 03:52:59;;;;;;;16.30;6.18;;;;;;;;;;4996349;28;100191;-73
2022/01/27 03:55:25;;;;;;;18.80;7.43;;;;;;;;;;4996661;28;100781;-74
2022/01/27 03:57:53;;;;;;;16.80;7.05;;;;;;;;;;4997245;28;99920;-73
2022/01/27 04:00:20;;;;;;;17.83;7.53;;;;;;;;;;5014338;28;100307;-73
2022/01/27 04:03:22;;;;;;;19.25;7.50;;;;;;;;;;5014308;28;100140;-73
2022/01/27 04:05:48;;;;;;;16.17;7.13;;;;;;;;;;5010663;28;100591;-73
2022/01/27 04:08:15;;;;;;;24.13;8.98;;;;;;;;;;5014737;28;100045;-73
2022/01/27 04:10:42;;;;;;;19.15;7.28;;;;;;;;;;5014881;28;99986;-73
2022/01/27 04:13:09;;;;;;;20.00;8.38;;;;;;;;;;4996507;28;100266;-73
2022/01/27 04:15:40;;;;;;;15.18;6.88;;;;;;;;;;4980061;28;101155;-73
2022/01/27 04:18:07;;;;;;;19.40;8.25;;;;;;;;;;4996216;28;100158;-73
2022/01/27 04:20:34;;;;;;;16.85;7.15;;;;;;;;;;4979867;28;100090;-74
2022/01/27 04:23:01;;;;;;;16.70;7.53;;;;;;;;;;5014169;28;100202;-73
2022/01/27 04:25:29;;;;;;;15.75;8.32;;;;;;;;;;5013615;28;100615;-74
2022/01/27 04:28:02;;;;;;;16.73;7.18;;;;;;;;;;4979947;28;100243;-74
2022/01/27 04:30:28;;;;;;;19.15;7.93;;;;;;;;;;4997307;28;100059;-76
2022/01/27 04:32:58;;;;;;;19.02;7.80;;;;;;;;;;4979684;28;100405;-73
2022/01/27 04:35:28;;;;;;;17.63;7.47;;;;;;;;;;4996504;28;100635;-74
2022/01/27 04:38:03;;;;;;;15.85;6.60;;;;;;;;;;5013783;28;100301;-73
2022/01/27 04:40:41;;;;;;;17.15;6.82;;;;;;;;;;4980291;28;100150;-74
2022/01/27 04:48:43;;;;;;;19.17;8.02;;;;;;;;;;4985047;28;100067;-73
2022/01/27 04:51:14;;;;;;;15.38;6.70;;;;;;;;;;4981205;28;100229;-73
2022/01/27 04:53:51;;;;;;;14.63;6.30;;;;;;;;;;5013546;28;100691;-73
2022/01/27 04:56:19;;;;;;;13.77;6.70;;;;;;;;;;5013464;28;100633;-73
2022/01/27 04:58:50;;;;;;;13.95;6.00;;;;;;;;;;5013639;28;100222;-73
2022/01/27 05:01:19;;;;;;;15.38;6.15;;;;;;;;;;5014310;28;99982;-72
2022/01/27 05:03:52;;;;;;;15.88;6.78;;;;;;;;;;4995697;28;100899;-73
2022/01/27 05:06:19;;;;;;;16.92;7.07;;;;;;;;;;4996363;28;100710;-74
2022/01/27 05:08:46;;;;;;;15.60;6.95;;;;;;;;;;5013340;28;100089;-74
2022/01/27 05:11:20;;;;;;;15.13;6.57;;;;;;;;;;4996187;28;100048;-73
2022/01/27 05:14:03;;;;;;;15.77;6.80;;;;;;;;;;5013084;28;100767;-73
2022/01/27 05:16:30;;;;;;;14.98;5.68;;;;;;;;;;5012856;28;100654;-72
2022/01/27 05:18:57;;;;;;;14.25;5.75;;;;;;;;;;4995702;28;100199;-73
2022/01/27 05:21:25;;;;;;;13.38;5.78;;;;;;;;;;5013361;28;100156;-73
2022/01/27 05:23:52;;;;;;;15.65;6.60;;;;;;;;;;4962359;28;100395;-72
2022/01/27 05:26:18;;;;;;;13.63;6.32;;;;;;;;;;4998801;28;101240;-73
2022/01/27 05:28:45;;;;;;;13.52;6.32;;;;;;;;;;5033438;28;100217;-73
2022/01/27 05:31:12;;;;;;;15.10;6.55;;;;;;;;;;5015807;28;100009;-73
2022/01/27 05:33:39;;;;;;;14.20;6.32;;;;;;;;;;5032472;28;100368;-73
2022/01/27 05:36:06;;;;;;;14.45;5.57;;;;;;;;;;5033084;28;100566;-74
2022/01/27 05:38:35;;;;;;;15.27;6.45;;;;;;;;;;5015564;28;99984;-74
2022/01/27 05:41:02;;;;;;;13.70;6.45;;;;;;;;;;4998477;28;100122;-74
2022/01/27 05:43:29;;;;;;;17.98;7.25;;;;;;;;;;5015088;28;100134;-74
2022/01/27 05:45:56;;;;;;;13.85;6.43;;;;;;;;;;4981540;28;101178;-73
2022/01/27 05:48:22;;;;;;;15.20;6.82;;;;;;;;;;5033451;28;100050;-73
2022/01/27 05:50:49;;;;;;;17.10;6.53;;;;;;;;;;5032869;27;100050;-73
2022/01/27 05:53:16;;;;;;;13.77;6.05;;;;;;;;;;5032454;28;100671;-74
2022/01/27 05:55:43;;;;;;;13.75;6.72;;;;;;;;;;5032114;28;100535;-74
2022/01/27 05:58:09;;;;;;;18.67;7.68;;;;;;;;;;5013779;28;100084;-74
2022/01/27 06:00:36;;;;;;;19.58;7.53;;;;;;;;;;5028990;28;99920;-73
2022/01/27 06:03:04;;;;;;;13.10;6.07;;;;;;;;;;5012334;28;100131;-72
2022/01/27 06:05:31;;;;;;;18.40;7.00;;;;;;;;;;4977831;28;101265;-74
2022/01/27 06:07:58;;;;;;;19.98;6.82;;;;;;;;;;4994975;28;100159;-73
2022/01/27 06:10:27;;;;;;;16.55;6.28;;;;;;;;;;5012044;28;100144;-73
2022/01/27 06:12:56;;;;;;;14.20;5.75;;;;;;;;;;4977808;28;100811;-74
2022/01/27 06:15:25;;;;;;;13.45;6.35;;;;;;;;;;4963558;28;100713;-73
2022/01/27 06:17:56;;;;;;;16.98;6.47;;;;;;;;;;5012237;28;100045;-73
2022/01/27 06:20:24;;;;;;;14.52;6.10;;;;;;;;;;5030943;28;101483;-74
2022/01/27 06:22:57;;;;;;;17.42;7.30;;;;;;;;;;5013657;28;100314;-74
2022/01/27 06:25:24;;;;;;;20.60;9.27;;;;;;;;;;5014961;28;100585;-74
2022/01/27 06:27:51;;;;;;;17.58;7.53;;;;;;;;;;5032176;28;99895;-74
2022/01/27 06:30:18;;;;;;;19.83;7.45;;;;;;;;;;5013682;28;100066;-74
2022/01/27 06:32:45;;;;;;;12.13;5.82;;;;;;;;;;5011978;28;100124;-74
2022/01/27 06:35:12;;;;;;;16.85;7.35;;;;;;;;;;5011494;28;101825;-72
2022/01/27 06:37:41;;;;;;;13.15;5.97;;;;;;;;;;4999093;28;100380;-72
2022/01/27 06:40:10;;;;;;;13.52;6.50;;;;;;;;;;5015301;28;100078;-74
2022/01/27 06:42:37;;;;;;;14.82;6.30;;;;;;;;;;5031459;28;101446;-73
2022/01/27 06:45:05;;;;;;;13.82;6.75;;;;;;;;;;4980699;28;101960;-73
2022/01/27 06:47:35;;;;;;;16.90;6.55;;;;;;;;;;5013953;28;100358;-74
2022/01/27 06:50:04;;;;;;;14.35;6.03;;;;;;;;;;5014323;28;100127;-76
2022/01/27 06:52:31;;;;;;;15.07;6.18;;;;;;;;;;5013657;28;100237;-73
2022/01/27 06:54:58;;;;;;;14.93;6.45;;;;;;;;;;5031672;28;100620;-74
2022/01/27 06:57:25;;;;;;;15.90;7.43;;;;;;;;;;5014220;28;100148;-74
2022/01/27 06:59:52;;;;;;;21.08;8.68;;;;;;;;;;5013801;28;100199;-74
2022/01/27 07:02:19;;;;;;;13.57;6.40;;;;;;;;;;5014704;28;100308;-75
2022/01/27 07:04:46;;;;;;;17.83;8.15;;;;;;;;;;5001212;28;100569;-75
2022/01/27 07:07:13;;;;;;;17.02;7.20;;;;;;;;;;5035034;28;100034;-76
2022/01/27 07:09:42;;;;;;;16.73;7.38;;;;;;;;;;5035581;28;100030;-74
2022/01/27 07:12:10;;;;;;;19.35;7.90;;;;;;;;;;5016773;28;100762;-74
2022/01/27 07:14:36;;;;;;;18.73;7.18;;;;;;;;;;5034647;28;100558;-74
2022/01/27 07:17:04;;;;;;;16.23;6.63;;;;;;;;;;5017562;28;99915;-74
2022/01/27 07:19:31;;;;;;;16.23;7.38;;;;;;;;;;5035273;28;100002;-75
2022/01/27 07:21:58;;;;;;;14.90;5.60;;;;;;;;;;5017089;28;102120;-74
2022/01/27 07:24:25;;;;;;;23.67;7.38;;;;;;;;;;5017004;28;100666;-75
2022/01/27 07:26:52;;;;;;;19.23;7.35;;;;;;;;;;5000800;28;100056;-74
2022/01/27 07:29:19;;;;;;;15.65;7.10;;;;;;;;;;5001163;28;100136;-74
2022/01/27 07:31:46;;;;;;;17.98;6.88;;;;;;;;;;5035036;28;100190;-74
2022/01/27 07:34:13;;;;;;;15.55;6.97;;;;;;;;;;5017399;28;100692;-74
2022/01/27 07:36:40;;;;;;;14.57;6.50;;;;;;;;;;5016332;28;100156;-74
2022/01/27 07:39:13;;;;;;;18.85;7.72;;;;;;;;;;5017085;28;100098;-74
2022/01/27 07:41:42;;;;;;;15.70;6.65;;;;;;;;;;5017756;28;100135;-74
2022/01/27 07:44:08;;;;;;;16.70;6.57;;;;;;;;;;5034344;28;100514;-74
2022/01/27 07:46:35;;;;;;;16.35;6.63;;;;;;;;;;5028772;28;100365;-74
2022/01/27 07:49:02;;;;;;;15.02;6.65;;;;;;;;;;5035183;28;99980;-73
2022/01/27 07:51:29;;;;;;;16.63;6.88;;;;;;;;;;5034030;28;101558;-74
2022/01/27 07:53:56;;;;;;;13.52;5.80;;;;;;;;;;5034814;28;100629;-74
2022/01/27 07:56:31;;;;;;;14.18;6.18;;;;;;;;;;5034721;28;100082;-74
2022/01/27 07:58:58;;;;;;;13.73;5.75;;;;;;;;;;4999507;28;100278;-73
2022/01/27 08:01:25;;;;;;;12.20;5.50;;;;;;;;;;5019683;28;100308;-73
2022/01/27 08:03:52;;;;;;;15.80;5.03;;;;;;;;;;5024146;28;100687;-74
2022/01/27 08:06:19;;;;;;;13.68;5.40;;;;;;;;;;5034452;28;100156;-74
2022/01/27 08:08:46;;;;;;;14.15;6.40;;;;;;;;;;4982381;28;100077;-74
2022/01/27 08:11:13;;;;;;;10.15;4.38;;;;;;;;;;5034102;28;100269;-74
2022/01/27 08:13:40;;;;;;;12.27;4.78;;;;;;;;;;5032574;27;100617;-73
2022/01/27 08:16:07;;;;;;;12.20;5.05;;;;;;;;;;5034152;28;100185;-74
2022/01/27 08:18:45;;;;;;;12.43;4.35;;;;;;;;;;5016532;28;99950;-74
2022/01/27 08:21:12;;;;;;;16.02;5.57;;;;;;;;;;4996706;28;100666;-74
2022/01/27 08:23:41;;;;;;;13.05;5.15;;;;;;;;;;5027573;28;100555;-73
2022/01/27 08:26:10;;;;;;;11.73;5.53;;;;;;;;;;5000460;28;100504;-75
2022/01/27 08:31:07;;;;;;;12.80;5.20;;;;;;;;;;5015945;28;100237;-73
2022/01/27 08:33:37;;;;;;;13.23;5.13;;;;;;;;;;4997715;28;100573;-72
2022/01/27 08:36:06;;;;;;;11.77;4.72;;;;;;;;;;5032180;28;100216;-74
2022/01/27 08:38:33;;;;;;;16.02;5.00;;;;;;;;;;5014715;28;100280;-74
2022/01/27 08:40:59;;;;;;;11.68;4.80;;;;;;;;;;5032358;28;100407;-74
2022/01/27 08:43:26;;;;;;;14.10;4.82;;;;;;;;;;5024917;28;100665;-73
2022/01/27 08:45:53;;;;;;;9.52;3.95;;;;;;;;;;4985928;28;100153;-74
2022/01/27 08:48:21;;;;;;;9.75;4.15;;;;;;;;;;5032503;28;100251;-74
2022/01/27 08:50:58;;;;;;;9.98;3.88;;;;;;;;;;5014599;28;100148;-76
2022/01/27 08:53:45;;;;;;;11.35;4.32;;;;;;;;;;4985041;28;101137;-76
2022/01/27 08:56:13;;;;;;;11.30;4.40;;;;;;;;;;5001631;28;101336;-76
2022/01/27 08:58:40;;;;;;;10.60;4.45;;;;;;;;;;5029387;28;100337;-76
2022/01/27 09:01:07;;;;;;;8.25;3.78;;;;;;;;;;5024410;28;100320;-76
2022/01/27 09:03:35;;;;;;;14.65;4.82;;;;;;;;;;5023066;28;101213;-76
2022/01/27 09:06:21;;;;;;;9.65;4.18;;;;;;;;;;5013847;28;100043;-77
2022/01/27 09:08:49;;;;;;;11.57;3.47;;;;;;;;;;5001062;28;101378;-76
2022/01/27 09:11:16;;;;;;;9.63;3.53;;;;;;;;;;5011919;28;100402;-76
2022/01/27 09:13:43;;;;;;;10.15;4.03;;;;;;;;;;4997912;28;100842;-76
2022/01/27 09:16:10;;;;;;;9.00;3.92;;;;;;;;;;4989521;28;100142;-76
2022/01/27 09:18:37;;;;;;;10.35;3.72;;;;;;;;;;5024586;28;101473;-76
2022/01/27 09:21:09;;;;;;;8.55;3.58;;;;;;;;;;4994239;28;100272;-76
2022/01/27 09:23:36;;;;;;;10.15;4.15;;;;;;;;;;5010759;28;101218;-75
2022/01/27 09:26:04;;;;;;;9.45;4.10;;;;;;;;;;5022832;28;102590;-75
2022/01/27 09:28:31;;;;;;;6.25;2.83;;;;;;;;;;5010271;28;100501;-75
2022/01/27 09:30:58;;;;;;;9.13;3.50;;;;;;;;;;5005457;28;101862;-76
2022/01/27 09:33:25;;;;;;;7.93;3.72;;;;;;;;;;5021445;28;100729;-75
2022/01/27 09:35:52;;;;;;;13.70;4.85;;;;;;;;;;4993565;28;100075;-76
2022/01/27 09:38:18;;;;;;;9.88;4.25;;;;;;;;;;5007689;28;100076;-75
2022/01/27 09:40:49;;;;;;;9.32;3.85;;;;;;;;;;5012245;28;100363;-76
2022/01/27 09:43:15;;;;;;;11.10;4.13;;;;;;;;;;5032073;28;100567;-76
2022/01/27 09:45:43;;;;;;;10.40;4.28;;;;;;;;;;5010463;28;100152;-76
2022/01/27 09:48:13;;;;;;;8.05;4.22;;;;;;;;;;5026081;28;100107;-77
2022/01/27 09:53:10;;;;;;;10.38;4.00;;;;;;;;;;5003388;28;101848;-76
2022/01/27 09:55:38;;;;;;;9.63;3.58;;;;;;;;;;4994291;28;100145;-75
2022/01/27 09:58:06;;;;;;;11.50;3.92;;;;;;;;;;5030973;28;100129;-76
2022/01/27 10:00:33;;;;;;;10.48;4.28;;;;;;;;;;5016123;28;100286;-75
2022/01/27 10:03:02;;;;;;;9.93;3.75;;;;;;;;;;5017962;28;100785;-74
2022/01/27 10:05:30;;;;;;;9.70;3.65;;;;;;;;;;4994002;28;99991;-74
2022/01/27 10:08:12;;;;;;;10.45;4.30;;;;;;;;;;5021763;28;100047;-75
2022/01/27 10:10:41;;;;;;;10.00;4.00;;;;;;;;;;4997029;28;102296;-75
2022/01/27 10:13:38;;;;;;;9.05;4.07;;;;;;;;;;4991034;28;102036;-78
2022/01/27 10:16:07;;;;;;;7.95;3.65;;;;;;;;;;5014663;28;100138;-76
2022/01/27 10:18:39;;;;;;;8.10;3.88;;;;;;;;;;5011206;28;100171;-75
2022/01/27 10:21:12;;;;;;;7.13;3.55;;;;;;;;;;4993290;28;103038;-75
2022/01/27 10:23:40;;;;;;;6.60;2.70;;;;;;;;;;5022188;28;100171;-75
2022/01/27 10:26:23;;;;;;;10.85;4.35;;;;;;;;;;5022044;28;100193;-75
2022/01/27 10:29:01;;;;;;;8.55;3.67;;;;;;;;;;5003517;28;100084;-74
2022/01/27 10:31:28;;;;;;;10.75;4.47;;;;;;;;;;5008873;28;100399;-76
2022/01/27 10:34:01;;;;;;;7.03;3.38;;;;;;;;;;5027417;28;102977;-74
2022/01/27 10:36:33;;;;;;;10.30;4.45;;;;;;;;;;4996339;28;100149;-73
2022/01/27 10:39:02;;;;;;;12.18;4.22;;;;;;;;;;5020680;28;100120;-74
2022/01/27 10:41:32;;;;;;;12.15;5.07;;;;;;;;;;4960819;28;100246;-74
2022/01/27 10:44:16;;;;;;;11.05;5.05;;;;;;;;;;5007687;28;100603;-75
2022/01/27 10:47:16;;;;;;;12.77;4.57;;;;;;;;;;5015125;28;100063;-75
2022/01/27 10:49:48;;;;;;;9.55;4.38;;;;;;;;;;4995073;28;100197;-77
2022/01/27 10:55:18;;;;;;;14.00;4.40;;;;;;;;;;5009615;28;100549;-76
2022/01/27 10:57:49;;;;;;;14.23;5.25;;;;;;;;;;5003699;28;100121;-75
2022/01/27 11:00:18;;;;;;;9.23;4.47;;;;;;;;;;5019383;28;100308;-75
2022/01/27 11:02:56;;;;;;;14.38;5.82;;;;;;;;;;4997168;28;100733;-76
2022/01/27 11:05:29;;;;;;;15.57;5.13;;;;;;;;;;5012946;28;100633;-75
2022/01/27 11:07:57;;;;;;;11.70;5.55;;;;;;;;;;5007146;28;100336;-73
2022/01/27 11:10:48;;;;;;;11.18;5.13;;;;;;;;;;5003959;28;100252;-74
2022/01/27 11:13:16;;;;;;;12.02;5.53;;;;;;;;;;4984594;28;101988;-74
2022/01/27 11:15:44;;;;;;;12.20;5.18;;;;;;;;;;5022592;28;100678;-74
2022/01/27 11:18:13;;;;;;;14.10;5.80;;;;;;;;;;5012657;28;100573;-74
2022/01/27 11:21:24;;;;;;;11.43;4.72;;;;;;;;;;5013060;28;100143;-74
2022/01/27 11:26:11;;;;;;;16.17;6.18;;;;;;;;;;4998353;28;102065;-75
2022/01/27 11:28:41;;;;;;;16.90;4.93;;;;;;;;;;4996408;28;100135;-74
2022/01/27 11:31:21;;;;;;;16.10;5.38;;;;;;;;;;4976077;28;100157;-74
2022/01/27 11:34:04;;;;;;;13.98;5.88;;;;;;;;;;4995649;28;100259;-74
2022/01/27 11:36:31;;;;;;;13.80;5.38;;;;;;;;;;4996642;28;100572;-74
2022/01/27 11:38:58;;;;;;;12.93;5.72;;;;;;;;;;5010148;28;100090;-73
2022/01/27 11:41:36;;;;;;;12.23;5.28;;;;;;;;;;4993017;28;100150;-74
2022/01/27 11:44:22;;;;;;;14.95;6.35;;;;;;;;;;5000629;28;103391;-73
2022/01/27 11:47:07;;;;;;;14.63;5.82;;;;;;;;;;4995127;28;101251;-73
2022/01/27 11:49:55;;;;;;;14.27;6.38;;;;;;;;;;5013030;28;100351;-73
2022/01/27 11:52:27;;;;;;;15.35;6.55;;;;;;;;;;4996822;28;100148;-74
2022/01/27 11:54:55;;;;;;;15.13;6.22;;;;;;;;;;4998091;28;100283;-73
2022/01/27 11:57:43;;;;;;;15.70;7.20;;;;;;;;;;5015687;28;100557;-73
2022/01/27 12:00:17;;;;;;;12.98;5.85;;;;;;;;;;5033441;28;100165;-73
2022/01/27 12:02:57;;;;;;;14.13;6.10;;;;;;;;;;4999581;28;100154;-73
2022/01/27 12:05:24;;;;;;;16.42;6.93;;;;;;;;;;4995511;28;100184;-72
2022/01/27 12:08:16;;;;;;;15.32;6.50;;;;;;;;;;4998828;28;100654;-74
2022/01/27 12:11:02;;;;;;;15.38;6.70;;;;;;;;;;5013755;28;100101;-73
2022/01/27 12:13:31;;;;;;;14.15;5.93;;;;;;;;;;5012999;28;100140;-72
2022/01/27 12:19:13;;;;;;;21.73;8.38;;;;;;;;;;5020162;28;100647;-73
2022/01/27 12:21:43;;;;;;;14.63;6.95;;;;;;;;;;5008760;28;100178;-74
2022/01/27 12:24:10;;;;;;;16.20;5.82;;;;;;;;;;4996802;28;100258;-73
2022/01/27 12:26:59;;;;;;;21.30;7.25;;;;;;;;;;5011921;28;100143;-73
2022/01/27 12:29:38;;;;;;;16.27;6.82;;;;;;;;;;5007012;28;101754;-74
2022/01/27 12:32:06;;;;;;;15.60;6.93;;;;;;;;;;4997620;28;100305;-74
2022/01/27 12:34:35;;;;;;;13.52;6.10;;;;;;;;;;5018227;28;100100;-74
2022/01/27 12:37:06;;;;;;;20.30;8.15;;;;;;;;;;5028206;28;100209;-74
2022/01/27 12:39:37;;;;;;;16.45;6.55;;;;;;;;;;5005544;28;101545;-73
2022/01/27 12:42:13;;;;;;;15.43;5.95;;;;;;;;;;4993179;28;100187;-74
2022/01/27 12:44:43;;;;;;;15.88;6.25;;;;;;;;;;4986913;28;100470;-72
2022/01/27 12:47:13;;;;;;;18.88;6.80;;;;;;;;;;5006290;28;100267;-74
2022/01/27 12:50:01;;;;;;;15.50;6.93;;;;;;;;;;5007654;28;100639;-74
2022/01/27 12:52:30;;;;;;;14.27;6.55;;;;;;;;;;5012787;28;100607;-73
2022/01/27 12:54:57;;;;;;;14.57;5.55;;;;;;;;;;4994482;28;100358;-74
2022/01/27 12:57:52;;;;;;;13.95;6.93;;;;;;;;;;4998289;28;100099;-73
2022/01/27 13:00:19;;;;;;;20.90;7.78;;;;;;;;;;5010993;28;101283;-72
2022/01/27 13:02:46;;;;;;;18.48;7.95;;;;;;;;;;4995023;28;100151;-73
2022/01/27 13:05:13;;;;;;;15.23;6.65;;;;;;;;;;4995219;28;100072;-73
2022/01/27 13:07:43;;;;;;;15.63;7.10;;;;;;;;;;5030506;28;100309;-74
2022/01/27 13:10:13;;;;;;;17.60;6.88;;;;;;;;;;5014124;28;101978;-74
2022/01/27 13:12:58;;;;;;;15.52;6.50;;;;;;;;;;5014931;28;100534;-74
2022/01/27 13:15:28;;;;;;;16.52;6.97;;;;;;;;;;5032765;28;100038;-74
2022/01/27 13:18:03;;;;;;;15.30;6.55;;;;;;;;;;4997854;28;100413;-73
2022/01/27 13:20:35;;;;;;;15.63;6.70;;;;;;;;;;5014924;28;101190;-73
2022/01/27 13:23:11;;;;;;;16.83;7.25;;;;;;;;;;4982296;28;100158;-74
2022/01/27 13:25:54;;;;;;;19.27;7.75;;;;;;;;;;4995603;28;100083;-74
2022/01/27 13:28:35;;;;;;;14.95;7.20;;;;;;;;;;4995079;28;100326;-74
2022/01/27 13:31:04;;;;;;;19.85;7.30;;;;;;;;;;5000572;28;101118;-75
2022/01/27 13:33:44;;;;;;;16.23;7.38;;;;;;;;;;5004516;28;100095;-75
2022/01/27 13:36:19;;;;;;;14.98;6.30;;;;;;;;;;4979886;28;100154;-74
2022/01/27 13:39:34;;;;;;;15.32;6.15;;;;;;;;;;4975762;28;102380;-73
2022/01/27 13:42:08;;;;;;;16.73;7.25;;;;;;;;;;4996868;28;100679;-74
2022/01/27 13:44:34;;;;;;;19.00;6.75;;;;;;;;;;5011635;28;100715;-73
2022/01/27 13:47:03;;;;;;;15.02;6.15;;;;;;;;;;5012934;28;100135;-74
2022/01/27 13:49:34;;;;;;;16.83;7.90;;;;;;;;;;4985166;28;100282;-73
2022/01/27 13:52:03;;;;;;;14.75;6.22;;;;;;;;;;5012005;28;100761;-75
2022/01/27 13:54:29;;;;;;;13.85;5.97;;;;;;;;;;5030033;28;100574;-74
2022/01/27 13:57:05;;;;;;;14.57;6.95;;;;;;;;;;5007869;28;100163;-73
2022/01/27 13:59:45;;;;;;;15.65;6.63;;;;;;;;;;5010365;28;100300;-74
2022/01/27 14:02:20;;;;;;;11.07;4.82;;;;;;;;;;5002247;28;100666;-73
2022/01/27 14:04:51;;;;;;;15.13;6.03;;;;;;;;;;5004617;28;100377;-74
2022/01/27 14:07:31;;;;;;;13.43;5.72;;;;;;;;;;4979076;28;100227;-73
2022/01/27 14:10:18;;;;;;;14.95;5.97;;;;;;;;;;5002706;28;100255;-74
2022/01/27 14:12:45;;;;;;;15.13;6.10;;;;;;;;;;5004231;28;100584;-75
2022/01/27 14:15:31;;;;;;;13.23;6.28;;;;;;;;;;5027488;28;100761;-73
2022/01/27 14:18:05;;;;;;;15.05;6.00;;;;;;;;;;5014475;28;100019;-74
2022/01/27 14:20:32;;;;;;;13.07;5.93;;;;;;;;;;4992509;28;100253;-74
2022/01/27 14:23:20;;;;;;;14.20;6.03;;;;;;;;;;5002005;28;101364;-74
2022/01/27 14:25:55;;;;;;;12.75;5.45;;;;;;;;;;4992534;28;100783;-73
2022/01/27 14:28:22;;;;;;;13.63;6.47;;;;;;;;;;4981726;28;100145;-74
2022/01/27 14:30:50;;;;;;;11.95;5.88;;;;;;;;;;5012782;28;103860;-73
2022/01/27 14:33:17;;;;;;;13.27;5.63;;;;;;;;;;4995382;28;100603;-74
2022/01/27 14:35:44;;;;;;;12.90;5.78;;;;;;;;;;4989524;28;100564;-75
2022/01/27 14:38:11;;;;;;;12.20;5.53;;;;;;;;;;4995194;28;100081;-74
2022/01/27 14:40:39;;;;;;;12.07;5.70;;;;;;;;;;5031019;28;100211;-74
2022/01/27 14:43:06;;;;;;;13.57;6.30;;;;;;;;;;5013901;28;100617;-74
2022/01/27 14:45:33;;;;;;;13.60;6.28;;;;;;;;;;4995473;28;100172;-73
2022/01/27 14:48:12;;;;;;;13.88;5.75;;;;;;;;;;5014869;28;100488;-73
2022/01/27 14:50:39;;;;;;;14.07;6.28;;;;;;;;;;5018740;28;100315;-74
2022/01/27 14:53:06;;;;;;;15.50;5.95;;;;;;;;;;5017713;28;100687;-74
2022/01/27 14:55:33;;;;;;;15.90;6.90;;;;;;;;;;5023723;28;100533;-74
2022/01/27 14:58:00;;;;;;;12.95;6.35;;;;;;;;;;4976468;28;100436;-73
2022/01/27 15:00:27;;;;;;;15.55;5.70;;;;;;;;;;5007908;28;103425;-74
2022/01/27 15:02:54;;;;;;;15.77;6.93;;;;;;;;;;5016410;28;100696;-73
2022/01/27 15:05:21;;;;;;;12.75;5.65;;;;;;;;;;4993249;28;100253;-74
2022/01/27 15:07:49;;;;;;;18.10;7.55;;;;;;;;;;4990329;28;102766;-74
2022/01/27 15:10:18;;;;;;;19.65;8.82;;;;;;;;;;5029981;28;100138;-74
2022/01/27 15:12:45;;;;;;;13.90;6.03;;;;;;;;;;5004534;28;100608;-74
2022/01/27 15:20:43;;;;;;;14.90;6.35;;;;;;;;;;5030163;28;100302;-73
2022/01/27 15:23:10;;;;;;;16.35;6.68;;;;;;;;;;4993174;28;100560;-74
2022/01/27 15:25:37;;;;;;;13.00;6.13;;;;;;;;;;4982734;28;100116;-74
2022/01/27 15:28:05;;;;;;;12.43;6.45;;;;;;;;;;5015277;28;100134;-74
2022/01/27 15:30:32;;;;;;;15.73;6.78;;;;;;;;;;5033749;28;100434;-75
2022/01/27 15:32:58;;;;;;;17.48;7.05;;;;;;;;;;4999520;28;100512;-74
2022/01/27 15:35:26;;;;;;;15.02;6.95;;;;;;;;;;5008938;28;100170;-74
2022/01/27 15:37:54;;;;;;;15.55;6.82;;;;;;;;;;4987480;28;100479;-73
2022/01/27 15:40:21;;;;;;;14.73;6.88;;;;;;;;;;5033020;28;100378;-74
2022/01/27 15:42:51;;;;;;;15.82;7.13;;;;;;;;;;5005545;28;100910;-74